Lonetree, Wyoming
Current Conditions -  °F | °C
As of 4:15 PM on Thursday 23 Oct 2014 (Local Time) from KFBR Reporting Station
Clear Clear  
Wind Chill: 19°   Ceiling: Unl
Heat Index: 19°   Visibility: NA
Dew Point: -6°   Wind: 21mph
Humidity: 18%   Direction: 280°W
Pressure: 30.19"   Gusts: 26mph
Location:  41.0297°N, 110.145°W
Report Text: KFBR 232215Z AUTO 28018G23KT CLR 19/M06 A3019 RMK AO2 T01921060 PWINO
Loading
Personal Weather Stations






























Interactive Weather Map
Tropical Storm Tracking
New forecast layout! Learn more

10-Day Weather Forecast

Advertisements
Track Severe Weather on mobile